Time;durP1;ratioP1;P1;durP2;ratioP2;P2;SDS_P1;SDS_P2;PMS_P1;PMS_P2;Temp;Humidity;BMP_temperature;BMP_pressure;BME280_temperature;BME280_humidity;BME280_pressure;Samples;Min_cycle;Max_cycle;Signal;HPM_P1;HPM_P2
2021/09/17 00:00:14;;;;;;;;;23.60;22.40;;;;;24.58;58.01;98323.06;6259151;27;97456;-61
2021/09/17 00:03:18;;;;;;;;;23.00;22.60;;;;;24.58;58.19;98334.06;6259529;27;96902;-59
2021/09/17 00:06:22;;;;;;;;;25.00;24.00;;;;;24.59;58.04;98330.97;6262842;27;97596;-61
2021/09/17 00:09:25;;;;;;;;;26.00;24.00;;;;;24.60;58.07;98324.34;6254782;27;96655;-61
2021/09/17 00:12:29;;;;;;;;;27.00;25.00;;;;;24.62;58.03;98323.19;6253054;27;97467;-61
2021/09/17 00:15:37;;;;;;;;;25.50;23.00;;;;;24.60;58.10;98320.75;6262985;27;96574;-61
2021/09/17 00:18:40;;;;;;;;;24.40;23.40;;;;;24.61;58.06;98319.63;6241736;27;96621;-61
2021/09/17 00:21:44;;;;;;;;;25.20;21.20;;;;;24.64;57.99;98323.66;6260565;27;97454;-61
2021/09/17 00:24:47;;;;;;;;;27.00;24.00;;;;;24.63;57.99;98320.09;6255311;27;97670;-60
2021/09/17 00:27:52;;;;;;;;;23.00;22.00;;;;;24.63;57.96;98327.59;6244448;27;98054;-61
2021/09/17 00:30:57;;;;;;;;;26.25;25.00;;;;;24.60;58.22;98315.25;6261286;27;96545;-60
2021/09/17 00:34:00;;;;;;;;;24.00;21.00;;;;;24.53;58.20;98304.72;6256396;27;97452;-61
2021/09/17 00:37:04;;;;;;;;;25.67;21.00;;;;;24.51;58.25;98298.75;6254375;27;97426;-61
2021/09/17 00:40:09;;;;;;;;;28.00;24.67;;;;;24.50;58.83;98304.56;6244749;27;97048;-61
2021/09/17 00:43:12;;;;;;;;;25.40;23.60;;;;;24.54;58.26;98300.03;6251720;27;96735;-61
2021/09/17 00:46:17;;;;;;;;;24.50;23.00;;;;;24.54;58.16;98291.75;6254776;27;97157;-61
2021/09/17 00:49:21;;;;;;;;;24.00;21.00;;;;;24.50;58.24;98299.06;6254190;27;97531;-61
2021/09/17 00:52:24;;;;;;;;;22.00;21.00;;;;;24.49;58.29;98294.69;6254993;27;96690;-60
2021/09/17 00:55:28;;;;;;;;;22.25;20.00;;;;;24.49;58.27;98280.91;6253240;27;96470;-61
2021/09/17 00:58:32;;;;;;;;;26.60;23.20;;;;;24.52;58.28;98281.06;6246693;27;97994;-60
2021/09/17 01:01:39;;;;;;;;;23.00;22.00;;;;;24.51;58.37;98273.94;6252633;27;97193;-59
2021/09/17 01:04:43;;;;;;;;;23.00;22.00;;;;;24.53;58.43;98268.09;6247763;27;97584;-59
2021/09/17 01:07:47;;;;;;;;;22.00;19.40;;;;;24.52;58.65;98267.28;6250761;27;98885;-60
2021/09/17 01:10:50;;;;;;;;;23.00;20.60;;;;;24.52;58.30;98272.81;6252571;27;97934;-61
2021/09/17 01:13:55;;;;;;;;;23.00;21.00;;;;;24.55;58.24;98263.06;6261497;27;97362;-60
2021/09/17 01:16:59;;;;;;;;;22.25;20.25;;;;;24.55;58.36;98254.78;6248869;27;97448;-59
2021/09/17 01:20:05;;;;;;;;;22.40;18.00;;;;;24.56;58.40;98248.16;6261514;27;96796;-59
2021/09/17 01:23:09;;;;;;;;;24.50;21.00;;;;;24.56;58.24;98246.19;6259551;27;96531;-59
2021/09/17 01:26:13;;;;;;;;;21.40;18.60;;;;;24.56;58.34;98237.94;6244274;27;96870;-61
2021/09/17 01:29:18;;;;;;;;;20.60;19.60;;;;;24.53;58.29;98229.53;6255567;27;97483;-59
2021/09/17 01:32:22;;;;;;;;;21.00;19.00;;;;;24.58;57.97;98229.34;6249118;27;98050;-61
2021/09/17 01:35:26;;;;;;;;;23.25;20.00;;;;;24.57;58.03;98227.72;6255940;27;96767;-59
2021/09/17 01:38:32;;;;;;;;;22.20;20.00;;;;;24.52;58.14;98223.22;6261219;27;97114;-58
2021/09/17 01:41:35;;;;;;;;;20.00;18.00;;;;;24.53;58.00;98224.78;6247239;27;97243;-61
2021/09/17 01:44:40;;;;;;;;;22.00;21.00;;;;;24.53;58.10;98224.00;6245368;27;97882;-60
2021/09/17 01:47:43;;;;;;;;;23.00;20.00;;;;;24.53;58.43;98221.25;6247949;27;98123;-60
2021/09/17 01:50:47;;;;;;;;;23.50;20.50;;;;;24.42;58.43;98200.69;6259931;27;96534;-60
2021/09/17 01:53:51;;;;;;;;;22.50;20.00;;;;;24.56;58.41;98212.31;6253512;27;97093;-60
2021/09/17 01:56:55;;;;;;;;;20.50;20.00;;;;;24.55;58.43;98206.00;6254827;27;97555;-59
2021/09/17 01:59:59;;;;;;;;;22.20;19.20;;;;;24.55;58.38;98205.19;6250275;27;96658;-60
2021/09/17 02:03:02;;;;;;;;;21.00;20.00;;;;;24.56;58.29;98206.81;6250038;27;97451;-61
2021/09/17 02:06:06;;;;;;;;;25.80;22.40;;;;;24.56;58.39;98204.06;6255128;27;97480;-61
2021/09/17 02:09:11;;;;;;;;;21.60;20.60;;;;;24.55;58.30;98194.97;6246240;27;97125;-59
2021/09/17 02:12:15;;;;;;;;;24.00;22.40;;;;;24.56;57.97;98199.34;6258130;27;96954;-59
2021/09/17 02:15:18;;;;;;;;;22.80;21.40;;;;;24.56;58.13;98193.03;6251197;27;96783;-61
2021/09/17 02:18:22;;;;;;;;;24.00;21.00;;;;;24.55;58.17;98192.22;6245678;27;96537;-60
2021/09/17 02:21:25;;;;;;;;;24.00;22.00;;;;;24.56;58.07;98184.75;6247944;27;97418;-60
2021/09/17 02:24:30;;;;;;;;;23.00;21.00;;;;;24.57;58.17;98184.44;6244002;27;97370;-60
2021/09/17 02:27:34;;;;;;;;;26.40;23.00;;;;;24.58;58.11;98188.00;6237245;27;97484;-61
2021/09/17 02:30:37;;;;;;;;;24.67;23.00;;;;;24.55;57.95;98185.91;6242150;27;97094;-60
2021/09/17 02:33:41;;;;;;;;;23.40;22.00;;;;;24.50;58.11;98184.13;6242255;27;97395;-59
2021/09/17 02:36:44;;;;;;;;;22.40;20.80;;;;;24.47;58.11;98182.03;6240725;27;97592;-61
2021/09/17 02:39:49;;;;;;;;;22.00;20.40;;;;;24.51;58.36;98166.47;6239378;27;97442;-61
2021/09/17 02:42:53;;;;;;;;;25.50;23.50;;;;;24.53;58.46;98163.41;6248823;27;97500;-61
2021/09/17 02:45:59;;;;;;;;;23.00;20.60;;;;;24.56;58.06;98165.47;6245593;27;98112;-60
2021/09/17 02:49:03;;;;;;;;;22.00;21.00;;;;;24.58;58.02;98164.00;6244136;27;97503;-60
2021/09/17 02:52:07;;;;;;;;;24.60;22.60;;;;;24.59;57.69;98164.81;6253916;27;97754;-61
2021/09/17 02:55:12;;;;;;;;;24.80;20.80;;;;;24.61;57.72;98159.78;6248010;27;97254;-62
2021/09/17 02:58:16;;;;;;;;;23.20;20.80;;;;;24.46;57.56;98138.28;6258361;27;96831;-60
2021/09/17 03:01:19;;;;;;;;;22.75;20.75;;;;;24.59;57.61;98154.59;6249659;27;97427;-58
2021/09/17 03:04:23;;;;;;;;;21.40;19.40;;;;;24.59;57.48;98156.53;6259371;27;97414;-59
2021/09/17 03:07:26;;;;;;;;;27.60;23.00;;;;;24.56;57.22;98151.69;6259753;27;96715;-60
2021/09/17 03:10:31;;;;;;;;;23.75;22.75;;;;;24.46;57.10;98117.06;6243005;27;96606;-59
2021/09/17 03:13:34;;;;;;;;;27.40;23.00;;;;;24.62;56.87;98146.81;6244633;27;96772;-60
2021/09/17 03:16:38;;;;;;;;;26.25;23.00;;;;;24.64;56.81;98139.81;6244491;27;97742;-60
2021/09/17 03:19:41;;;;;;;;;26.00;23.80;;;;;24.63;56.65;98135.44;6243039;27;97088;-61
2021/09/17 03:22:45;;;;;;;;;28.00;24.00;;;;;24.60;56.53;98136.13;6242488;27;98452;-60
2021/09/17 03:25:50;;;;;;;;;32.00;25.40;;;;;24.58;56.53;98136.44;6238685;27;97659;-60
2021/09/17 03:28:53;;;;;;;;;25.00;22.50;;;;;24.53;56.92;98125.59;6249411;27;97263;-60
2021/09/17 03:31:57;;;;;;;;;28.60;25.00;;;;;24.47;57.16;98134.41;6252499;27;96677;-59
2021/09/17 03:35:00;;;;;;;;;27.00;24.00;;;;;24.40;57.34;98118.38;6253674;27;96576;-60
2021/09/17 03:38:06;;;;;;;;;30.00;26.00;;;;;24.39;57.26;98126.94;6249735;27;96940;-59
2021/09/17 03:41:10;;;;;;;;;27.60;24.60;;;;;24.33;57.31;98125.53;6239502;27;96671;-61
2021/09/17 03:44:15;;;;;;;;;23.75;22.00;;;;;24.26;57.14;98131.53;6256488;27;97529;-60
2021/09/17 03:47:18;;;;;;;;;29.00;25.00;;;;;24.31;57.22;98138.81;6257892;27;97460;-61
2021/09/17 03:50:22;;;;;;;;;29.00;26.00;;;;;24.26;57.19;98134.31;6262558;27;97475;-61
2021/09/17 03:53:25;;;;;;;;;26.00;23.00;;;;;24.26;57.28;98139.00;6252008;27;97301;-61
2021/09/17 03:56:30;;;;;;;;;23.25;22.25;;;;;24.22;57.18;98138.03;6247166;27;97529;-61
2021/09/17 03:59:33;;;;;;;;;29.20;26.20;;;;;24.16;57.41;98134.63;6246255;27;97636;-60
2021/09/17 04:02:36;;;;;;;;;29.60;24.20;;;;;24.14;57.52;98142.44;6251263;27;97047;-61
2021/09/17 04:05:41;;;;;;;;;26.00;23.00;;;;;24.08;57.61;98135.47;6254469;27;97433;-59
2021/09/17 04:08:44;;;;;;;;;29.20;24.00;;;;;24.06;57.46;98129.47;6257556;27;96800;-60
2021/09/17 04:11:49;;;;;;;;;26.00;24.20;;;;;23.98;57.77;98133.06;6259990;27;97539;-61
2021/09/17 04:14:52;;;;;;;;;26.50;23.75;;;;;23.96;57.88;98133.38;6251784;27;96763;-59
2021/09/17 04:17:56;;;;;;;;;26.20;20.40;;;;;23.94;57.73;98127.41;6256898;27;96975;-59
2021/09/17 04:21:00;;;;;;;;;25.60;22.00;;;;;23.86;57.80;98133.72;6254537;27;96663;-61
2021/09/17 04:24:03;;;;;;;;;29.00;23.00;;;;;23.85;57.62;98134.06;6246811;27;96647;-59
2021/09/17 04:27:08;;;;;;;;;26.00;23.00;;;;;23.79;57.35;98133.41;6239760;27;98369;-59
2021/09/17 04:30:14;;;;;;;;;22.50;20.50;;;;;23.76;57.17;98136.81;6256640;27;96669;-59
2021/09/17 04:33:17;;;;;;;;;21.00;18.60;;;;;23.69;57.07;98134.56;6262150;27;97460;-61
2021/09/17 04:36:20;;;;;;;;;23.20;20.60;;;;;23.65;56.78;98130.03;6253463;27;98765;-60
2021/09/17 04:39:24;;;;;;;;;22.00;19.00;;;;;23.53;56.31;98138.94;6246762;27;97440;-61
2021/09/17 04:42:29;;;;;;;;;22.20;19.20;;;;;23.46;56.45;98135.84;6238116;27;97318;-60
2021/09/17 04:45:32;;;;;;;;;20.60;19.60;;;;;23.39;56.42;98135.50;6244029;27;96958;-63
2021/09/17 04:48:36;;;;;;;;;20.60;18.40;;;;;23.32;56.33;98130.47;6250156;27;96772;-59
2021/09/17 04:51:39;;;;;;;;;22.60;17.00;;;;;23.26;56.55;98129.00;6250431;27;97347;-60
2021/09/17 04:54:43;;;;;;;;;18.40;16.00;;;;;23.14;55.93;98122.56;6244178;27;97398;-59
2021/09/17 04:57:47;;;;;;;;;15.00;14.00;;;;;23.11;55.90;98131.44;6253125;27;97569;-59
2021/09/17 05:00:51;;;;;;;;;16.50;14.50;;;;;22.99;55.09;98129.31;6261411;27;97232;-60
2021/09/17 05:03:54;;;;;;;;;12.60;12.60;;;;;22.91;55.21;98132.88;6256983;27;97215;-59
2021/09/17 05:06:58;;;;;;;;;13.25;12.00;;;;;22.87;55.26;98135.44;6252623;27;97197;-60
2021/09/17 05:10:02;;;;;;;;;10.00;9.80;;;;;22.82;54.69;98141.06;6263164;27;97563;-59
2021/09/17 05:13:07;;;;;;;;;12.00;11.60;;;;;22.78;54.69;98142.03;6262356;27;97173;-59
2021/09/17 05:16:10;;;;;;;;;12.50;12.00;;;;;22.63;54.88;98145.19;6260831;27;97172;-62
2021/09/17 05:19:14;;;;;;;;;10.60;10.00;;;;;22.56;54.97;98142.09;6261790;27;96880;-60
2021/09/17 05:22:17;;;;;;;;;12.00;10.00;;;;;22.42;55.30;98142.22;6261707;27;97425;-62
2021/09/17 05:25:21;;;;;;;;;10.00;9.00;;;;;22.38;54.87;98147.50;6260732;27;97173;-59
2021/09/17 05:28:26;;;;;;;;;13.40;11.60;;;;;22.22;55.21;98145.50;6248585;27;98064;-61
2021/09/17 05:31:29;;;;;;;;;10.00;9.20;;;;;22.21;55.56;98149.38;6260400;27;97461;-60
2021/09/17 05:34:32;;;;;;;;;11.00;10.40;;;;;22.18;55.49;98152.75;6261832;27;96802;-59
2021/09/17 05:37:37;;;;;;;;;13.00;12.00;;;;;22.01;55.94;98126.81;6259154;27;96908;-59
2021/09/17 05:40:41;;;;;;;;;10.20;10.20;;;;;22.11;55.57;98158.69;6251341;27;97176;-59
2021/09/17 05:43:45;;;;;;;;;10.00;10.00;;;;;22.10;55.84;98159.00;6259109;27;97224;-61
2021/09/17 05:46:49;;;;;;;;;12.00;11.00;;;;;22.04;55.81;98159.13;6256538;27;97221;-59
2021/09/17 05:49:52;;;;;;;;;12.00;11.00;;;;;22.02;55.79;98155.91;6259373;27;97020;-60
2021/09/17 05:52:56;;;;;;;;;12.00;11.00;;;;;21.99;56.13;98167.50;6261280;27;97915;-59
2021/09/17 05:55:59;;;;;;;;;10.60;10.60;;;;;21.98;56.23;98162.34;6255060;27;97533;-62
2021/09/17 05:59:04;;;;;;;;;13.00;12.00;;;;;21.93;56.06;98159.69;6252833;27;97666;-61
2021/09/17 06:02:08;;;;;;;;;13.00;12.00;;;;;21.94;56.78;98177.81;6257103;27;96768;-61
2021/09/17 06:05:12;;;;;;;;;13.00;12.00;;;;;21.94;56.11;98173.09;6258935;27;97541;-62
2021/09/17 06:08:15;;;;;;;;;13.00;12.00;;;;;21.95;56.25;98182.16;6257511;27;97513;-60
2021/09/17 06:11:19;;;;;;;;;12.80;11.00;;;;;21.92;56.09;98180.81;6257284;27;98048;-61
2021/09/17 06:14:24;;;;;;;;;10.00;10.00;;;;;21.88;55.97;98185.31;6261192;27;97520;-61
2021/09/17 06:17:27;;;;;;;;;10.00;9.00;;;;;21.88;56.35;98179.84;6261519;27;97010;-61
2021/09/17 06:20:30;;;;;;;;;10.40;10.00;;;;;21.81;56.30;98189.59;6259818;27;96732;-61
2021/09/17 06:23:34;;;;;;;;;8.50;8.00;;;;;21.78;56.11;98191.06;6261744;27;96920;-62
2021/09/17 06:26:37;;;;;;;;;8.00;8.00;;;;;21.78;56.12;98193.81;6260210;27;96961;-62
2021/09/17 06:29:42;;;;;;;;;9.20;8.00;;;;;21.66;56.34;98200.94;6260473;27;96956;-61
2021/09/17 06:32:46;;;;;;;;;7.60;7.60;;;;;21.65;56.18;98200.13;6244436;27;98060;-63
2021/09/17 06:35:49;;;;;;;;;10.20;9.80;;;;;21.66;56.22;98201.75;6257541;27;98106;-63
2021/09/17 06:38:52;;;;;;;;;9.00;9.00;;;;;21.67;56.20;98213.53;6259972;27;96880;-62
2021/09/17 06:41:59;;;;;;;;;9.00;8.00;;;;;21.69;56.89;98206.66;6256740;27;97452;-61
2021/09/17 06:45:06;;;;;;;;;6.00;6.00;;;;;21.54;55.78;98212.47;6249372;27;96874;-62
2021/09/17 06:48:10;;;;;;;;;4.20;4.00;;;;;21.40;54.44;98220.75;6248799;27;96706;-61
2021/09/17 06:51:13;;;;;;;;;4.25;4.25;;;;;21.34;54.83;98232.94;6243705;27;96520;-61
2021/09/17 06:54:17;;;;;;;;;5.60;5.00;;;;;21.31;54.71;98235.47;6247412;27;97370;-59
2021/09/17 06:57:20;;;;;;;;;5.00;4.00;;;;;21.27;54.34;98228.97;6246224;27;96808;-60
2021/09/17 07:00:27;;;;;;;;;2.20;2.20;;;;;21.28;54.91;98230.59;6245550;27;96583;-62
2021/09/17 07:03:31;;;;;;;;;3.40;3.40;;;;;21.24;54.73;98241.38;6251105;27;96891;-62
2021/09/17 07:06:37;;;;;;;;;4.00;4.00;;;;;21.16;54.47;98245.63;6256194;27;96465;-62
2021/09/17 07:09:40;;;;;;;;;3.67;3.67;;;;;21.12;54.62;98246.53;6251666;27;97214;-60
2021/09/17 07:12:44;;;;;;;;;5.00;4.00;;;;;21.06;55.12;98254.03;6255584;27;97486;-58
2021/09/17 07:15:49;;;;;;;;;3.00;3.00;;;;;21.02;55.44;98253.03;6258429;27;97397;-61
2021/09/17 07:18:52;;;;;;;;;3.00;3.00;;;;;21.07;55.04;98261.16;6259039;27;96609;-61
2021/09/17 07:21:55;;;;;;;;;2.80;2.20;;;;;21.09;54.93;98258.09;6261055;27;96676;-58
2021/09/17 07:24:59;;;;;;;;;4.00;4.00;;;;;21.04;55.15;98259.03;6261268;27;96660;-59
2021/09/17 07:28:03;;;;;;;;;3.00;3.00;;;;;21.03;55.41;98259.31;6252487;27;96678;-62
2021/09/17 07:31:08;;;;;;;;;2.40;2.40;;;;;21.01;55.58;98264.31;6240401;27;96994;-58
2021/09/17 07:34:12;;;;;;;;;2.00;2.00;;;;;21.03;55.91;98273.84;6258261;27;96738;-62
2021/09/17 07:37:15;;;;;;;;;3.00;3.00;;;;;21.13;57.06;98284.63;6249018;27;97925;-62
2021/09/17 07:40:19;;;;;;;;;3.00;3.00;;;;;21.15;55.84;98278.84;6249483;27;97097;-60
2021/09/17 07:43:22;;;;;;;;;3.00;3.00;;;;;21.24;55.11;98289.91;6261920;27;97048;-60
2021/09/17 07:46:28;;;;;;;;;2.00;2.00;;;;;21.23;55.25;98294.59;6247723;27;97103;-59
2021/09/17 07:49:31;;;;;;;;;2.80;2.20;;;;;21.22;54.92;98297.63;6254220;27;97160;-60
2021/09/17 07:52:35;;;;;;;;;3.00;3.00;;;;;21.16;54.99;98313.34;6265069;27;98521;-61
2021/09/17 07:55:39;;;;;;;;;4.00;4.00;;;;;21.16;55.13;98305.13;6263980;27;97479;-61
2021/09/17 07:58:42;;;;;;;;;3.00;3.00;;;;;21.13;55.43;98308.47;6263296;27;97446;-61
2021/09/17 08:01:47;;;;;;;;;3.60;3.60;;;;;21.12;55.71;98312.31;6260464;27;96595;-64
2021/09/17 08:04:51;;;;;;;;;3.00;3.00;;;;;21.06;55.60;98310.81;6251529;27;97275;-62
2021/09/17 08:07:55;;;;;;;;;2.00;2.00;;;;;20.91;55.62;98308.34;6261116;27;96593;-62
2021/09/17 08:10:59;;;;;;;;;3.75;3.00;;;;;20.95;55.68;98312.09;6278759;27;96818;-61
2021/09/17 08:14:02;;;;;;;;;2.00;2.00;;;;;20.93;55.76;98309.66;6265465;27;97191;-60
2021/09/17 08:17:07;;;;;;;;;3.00;3.00;;;;;20.91;55.73;98311.91;6260326;27;96603;-61
2021/09/17 08:20:12;;;;;;;;;1.40;1.00;;;;;20.91;55.49;98314.66;6262444;27;97507;-60
2021/09/17 08:23:19;;;;;;;;;4.00;4.00;;;;;20.95;55.57;98315.66;6246940;27;97833;-59
2021/09/17 08:26:22;;;;;;;;;2.60;2.60;;;;;20.97;55.84;98312.59;6260548;27;97225;-61
2021/09/17 08:29:25;;;;;;;;;2.00;2.00;;;;;20.94;55.29;98313.22;6250219;27;97964;-60
2021/09/17 08:32:45;;;;;;;;;4.20;4.20;;;;;20.98;55.74;98317.78;6257046;27;96712;-59
2021/09/17 08:36:10;;;;;;;;;4.00;3.40;;;;;20.98;55.57;98323.25;6257281;27;97106;-61
2021/09/17 08:39:35;;;;;;;;;4.00;4.00;;;;;21.01;55.69;98319.13;6254596;27;97216;-63
2021/09/17 08:42:48;;;;;;;;;3.80;3.80;;;;;21.00;55.69;98323.78;6253091;27;96944;-62
2021/09/17 08:45:51;;;;;;;;;4.00;4.00;;;;;20.98;55.94;98319.72;6262801;27;96626;-61
2021/09/17 08:49:02;;;;;;;;;3.00;3.00;;;;;20.99;55.72;98318.59;6253089;27;97146;-61
2021/09/17 08:52:06;;;;;;;;;3.00;3.00;;;;;21.05;55.96;98322.88;6263128;27;96599;-60
2021/09/17 08:55:11;;;;;;;;;2.00;2.00;;;;;21.11;56.11;98327.16;6263327;27;96888;-62
2021/09/17 08:58:14;;;;;;;;;3.00;3.00;;;;;21.14;55.60;98323.81;6256502;27;97416;-60
2021/09/17 09:01:28;;;;;;;;;3.00;3.00;;;;;21.04;55.74;98322.06;6255623;27;97399;-59
2021/09/17 09:04:41;;;;;;;;;3.00;3.00;;;;;21.04;55.25;98321.25;6249995;27;96816;-62
2021/09/17 09:07:46;;;;;;;;;3.00;2.25;;;;;21.04;55.94;98326.72;6262552;27;96696;-59
2021/09/17 09:10:49;;;;;;;;;3.00;3.00;;;;;21.07;55.45;98326.94;6262655;27;96931;-60
2021/09/17 09:14:01;;;;;;;;;2.60;2.60;;;;;21.09;55.93;98330.19;6263578;27;97913;-60
2021/09/17 09:17:05;;;;;;;;;3.00;3.00;;;;;21.14;55.70;98332.88;6262530;27;96914;-62
2021/09/17 09:20:26;;;;;;;;;3.00;3.00;;;;;21.13;55.31;98327.66;6261647;27;96493;-60
2021/09/17 09:23:29;;;;;;;;;4.00;3.60;;;;;21.12;55.51;98329.56;6261559;27;97052;-63
2021/09/17 09:26:33;;;;;;;;;3.00;3.00;;;;;21.16;55.15;98327.06;6266773;27;97421;-61
2021/09/17 09:29:38;;;;;;;;;3.00;3.00;;;;;21.20;55.13;98327.28;6247478;27;97502;-61
2021/09/17 09:32:41;;;;;;;;;3.00;3.00;;;;;21.19;55.66;98326.47;6253799;27;97045;-59
2021/09/17 09:35:46;;;;;;;;;3.00;3.00;;;;;21.17;55.46;98321.28;6262190;27;97208;-60
2021/09/17 09:38:51;;;;;;;;;4.00;3.60;;;;;21.18;55.88;98320.16;6260372;27;96951;-61
2021/09/17 09:41:55;;;;;;;;;3.60;3.00;;;;;21.16;56.25;98325.13;6262465;27;96719;-60
2021/09/17 09:45:17;;;;;;;;;3.60;3.60;;;;;21.17;56.32;98312.25;6256069;27;96692;-62
2021/09/17 09:48:21;;;;;;;;;3.00;3.00;;;;;21.07;55.43;98296.78;6258466;27;97094;-59
2021/09/17 09:51:25;;;;;;;;;4.60;4.60;;;;;21.14;55.62;98310.94;6248506;27;97018;-58
2021/09/17 09:54:32;;;;;;;;;5.20;4.00;;;;;21.19;55.76;98318.25;6261266;27;96620;-59
2021/09/17 09:57:36;;;;;;;;;5.00;5.00;;;;;21.17;56.10;98318.53;6256205;27;96609;-61
2021/09/17 10:00:41;;;;;;;;;4.20;4.00;;;;;21.21;56.08;98316.00;6257485;27;96826;-59
2021/09/17 10:03:46;;;;;;;;;4.00;4.00;;;;;21.27;55.92;98320.25;6257546;27;97180;-63
2021/09/17 10:07:03;;;;;;;;;4.00;4.00;;;;;21.26;55.32;98317.84;6261891;27;96802;-62
2021/09/17 10:10:08;;;;;;;;;4.00;4.00;;;;;21.21;55.78;98318.72;6259167;27;96872;-60
2021/09/17 10:13:12;;;;;;;;;5.00;5.00;;;;;21.26;55.80;98312.38;6260741;27;96705;-61
2021/09/17 10:16:17;;;;;;;;;5.00;5.00;;;;;21.25;55.61;98311.56;6253894;27;97411;-61
2021/09/17 10:19:22;;;;;;;;;5.00;5.00;;;;;21.20;55.43;98313.56;6246192;27;99713;-59
2021/09/17 10:22:32;;;;;;;;;5.40;4.80;;;;;21.23;55.09;98319.25;6247181;27;97007;-60
2021/09/17 10:25:56;;;;;;;;;5.00;5.00;;;;;21.23;55.44;98313.78;6259248;27;99722;-61
2021/09/17 10:29:05;;;;;;;;;3.00;3.00;;;;;21.26;55.65;98315.09;6259434;27;96588;-59
2021/09/17 10:32:38;;;;;;;;;5.00;4.00;;;;;21.21;55.62;98290.53;6251403;27;96689;-61
2021/09/17 10:35:45;;;;;;;;;4.80;4.80;;;;;21.34;55.63;98301.50;6244816;27;97836;-61
2021/09/17 10:39:07;;;;;;;;;5.60;5.00;;;;;21.47;55.11;98311.63;6253096;27;97385;-61
2021/09/17 10:42:13;;;;;;;;;5.60;5.60;;;;;21.46;55.20;98307.25;6252058;27;96658;-59
2021/09/17 10:45:18;;;;;;;;;5.00;5.00;;;;;21.51;54.87;98304.41;6249878;27;97921;-61
2021/09/17 10:48:23;;;;;;;;;5.00;5.00;;;;;21.07;54.79;98228.25;6254759;27;97244;-62
2021/09/17 10:51:35;;;;;;;;;7.00;6.00;;;;;21.60;55.02;98307.22;6251155;27;97360;-62
2021/09/17 10:54:40;;;;;;;;;4.00;3.80;;;;;21.62;54.48;98307.75;6240370;27;97478;-61
2021/09/17 10:58:17;;;;;;;;;4.00;4.00;;;;;21.61;54.20;98301.44;6251964;27;96783;-62
2021/09/17 11:01:20;;;;;;;;;4.50;4.00;;;;;21.71;54.39;98296.84;6243294;27;96994;-61
2021/09/17 11:04:27;;;;;;;;;5.00;5.00;;;;;21.64;54.63;98301.97;6259036;27;97041;-62
2021/09/17 11:07:35;;;;;;;;;5.00;4.00;;;;;21.60;54.43;98296.25;6247290;27;97435;-62
2021/09/17 11:10:40;;;;;;;;;6.00;6.00;;;;;21.66;54.37;98297.78;6250758;27;97477;-63
2021/09/17 11:13:47;;;;;;;;;7.40;6.80;;;;;21.53;54.43;98287.66;6253522;27;97882;-61
2021/09/17 11:16:52;;;;;;;;;5.00;4.00;;;;;21.80;54.69;98306.78;6251074;27;97515;-61
2021/09/17 11:19:58;;;;;;;;;4.00;3.60;;;;;21.87;54.88;98298.13;6252460;27;96610;-62
2021/09/17 11:23:04;;;;;;;;;5.25;5.25;;;;;21.87;54.29;98300.88;6259377;27;97107;-61
2021/09/17 11:26:09;;;;;;;;;6.40;5.40;;;;;21.82;54.68;98292.75;6254107;27;97493;-63
2021/09/17 11:29:15;;;;;;;;;5.00;5.00;;;;;21.80;53.90;98293.06;6260036;27;97262;-62
2021/09/17 11:32:27;;;;;;;;;8.00;7.75;;;;;21.85;54.46;98289.38;6249687;27;96604;-62
2021/09/17 11:35:31;;;;;;;;;12.00;10.80;;;;;21.88;54.45;98292.34;6253969;27;96719;-62
2021/09/17 11:38:34;;;;;;;;;16.00;14.00;;;;;21.97;54.17;98289.69;6257889;27;96742;-63
2021/09/17 11:41:40;;;;;;;;;13.50;12.50;;;;;21.96;54.30;98283.41;6263340;27;97436;-59
2021/09/17 11:44:47;;;;;;;;;11.00;11.00;;;;;21.88;54.10;98275.88;6263190;27;96590;-63
2021/09/17 11:47:52;;;;;;;;;7.60;7.00;;;;;21.53;54.15;98252.81;6258933;27;97288;-65
2021/09/17 11:50:57;;;;;;;;;6.80;6.80;;;;;21.85;54.23;98286.66;6246989;27;97128;-63
2021/09/17 11:54:02;;;;;;;;;10.00;8.00;;;;;21.85;54.16;98281.16;6263278;27;97417;-61
2021/09/17 11:57:10;;;;;;;;;6.60;6.00;;;;;21.85;54.38;98271.00;6257795;27;97271;-62
2021/09/17 12:00:17;;;;;;;;;7.80;7.20;;;;;21.91;54.67;98283.47;6246101;27;97446;-59
2021/09/17 12:03:21;;;;;;;;;9.00;9.00;;;;;21.94;54.58;98274.66;6248715;27;96738;-63
2021/09/17 12:06:25;;;;;;;;;8.75;8.75;;;;;22.01;54.53;98286.03;6252832;27;96769;-63
2021/09/17 12:09:29;;;;;;;;;9.00;8.00;;;;;22.00;54.09;98287.13;6254181;27;96675;-63
2021/09/17 12:12:35;;;;;;;;;9.00;8.00;;;;;22.03;53.94;98289.28;6255032;27;96958;-61
2021/09/17 12:15:41;;;;;;;;;10.00;9.00;;;;;22.07;54.62;98286.72;6243128;27;96725;-62
2021/09/17 12:19:00;;;;;;;;;11.00;10.60;;;;;21.97;54.35;98284.22;6244682;27;96642;-62
2021/09/17 12:22:04;;;;;;;;;9.60;9.00;;;;;21.95;53.80;98287.25;6249074;27;96981;-59
2021/09/17 12:25:31;;;;;;;;;10.20;9.60;;;;;22.03;53.72;98291.22;6243885;27;97460;-61
2021/09/17 12:28:38;;;;;;;;;11.00;10.00;;;;;22.03;53.77;98285.72;6249061;27;97436;-62
2021/09/17 12:31:50;;;;;;;;;12.20;11.60;;;;;22.06;54.27;98279.59;6249370;27;97446;-62
2021/09/17 12:35:06;;;;;;;;;11.00;10.00;;;;;22.03;53.61;98278.31;6242639;27;97738;-61
2021/09/17 12:38:14;;;;;;;;;11.00;10.00;;;;;22.15;54.18;98285.97;6255723;27;96801;-61
2021/09/17 12:41:24;;;;;;;;;12.60;12.00;;;;;22.08;53.85;98284.78;6252665;27;96928;-60
2021/09/17 12:44:41;;;;;;;;;13.00;12.00;;;;;22.11;53.98;98278.66;6248554;27;96910;-60
2021/09/17 12:47:52;;;;;;;;;12.80;12.00;;;;;22.16;54.04;98287.59;6246506;27;96929;-62
2021/09/17 12:50:56;;;;;;;;;14.00;13.00;;;;;22.17;54.31;98278.25;6248927;27;97778;-61
2021/09/17 12:54:00;;;;;;;;;16.40;16.00;;;;;22.13;53.93;98279.19;6259373;27;96824;-58
2021/09/17 12:57:18;;;;;;;;;16.20;15.60;;;;;22.09;54.19;98281.72;6252848;27;97994;-59
2021/09/17 13:00:23;;;;;;;;;15.60;15.60;;;;;22.18;54.12;98281.81;6244540;27;96763;-61
2021/09/17 13:03:27;;;;;;;;;14.40;14.00;;;;;22.22;53.70;98277.31;6242944;27;96697;-61
2021/09/17 13:06:32;;;;;;;;;14.00;13.00;;;;;22.28;53.80;98274.13;6245880;27;97844;-61
2021/09/17 13:09:35;;;;;;;;;14.50;12.75;;;;;22.23;54.44;98277.00;6245613;27;97105;-62
2021/09/17 13:12:39;;;;;;;;;18.00;14.60;;;;;22.16;53.95;98251.09;6248828;27;96921;-62
2021/09/17 13:15:46;;;;;;;;;13.60;13.00;;;;;22.20;53.80;98254.81;6242940;27;98372;-60
2021/09/17 13:18:49;;;;;;;;;13.00;13.00;;;;;22.34;53.37;98277.53;6250982;27;97131;-61
2021/09/17 13:21:52;;;;;;;;;14.00;13.60;;;;;22.36;53.82;98276.09;6237931;27;97896;-62
2021/09/17 13:24:56;;;;;;;;;12.00;12.00;;;;;22.31;53.49;98269.94;6247716;27;96909;-62
2021/09/17 13:27:59;;;;;;;;;16.60;14.60;;;;;22.36;53.80;98273.38;6241167;27;96595;-62
2021/09/17 13:31:04;;;;;;;;;14.40;13.00;;;;;22.37;53.30;98283.22;6249268;27;96872;-61
2021/09/17 13:34:08;;;;;;;;;13.00;13.00;;;;;22.39;53.59;98282.91;6251298;27;99876;-63
2021/09/17 13:37:11;;;;;;;;;13.00;13.00;;;;;22.40;52.88;98274.34;6241263;27;97487;-60
2021/09/17 13:40:17;;;;;;;;;13.20;13.00;;;;;22.36;53.37;98275.28;6242183;27;97222;-59
2021/09/17 13:43:21;;;;;;;;;15.40;15.00;;;;;22.48;53.43;98272.78;6238528;27;98098;-59
2021/09/17 13:46:26;;;;;;;;;15.40;13.40;;;;;22.36;52.22;98276.09;6238563;27;96747;-61
2021/09/17 13:49:30;;;;;;;;;17.00;15.40;;;;;22.44;52.96;98272.59;6246447;27;96656;-60
2021/09/17 13:52:33;;;;;;;;;16.33;15.00;;;;;22.55;52.48;98253.09;6251132;27;97218;-61
2021/09/17 13:55:39;;;;;;;;;14.60;13.60;;;;;22.65;52.82;98263.84;6256920;27;97735;-61
2021/09/17 13:58:42;;;;;;;;;16.50;16.00;;;;;22.59;52.60;98259.59;6250281;27;97201;-61
2021/09/17 14:01:47;;;;;;;;;16.40;16.00;;;;;22.54;52.22;98255.03;6254513;27;98031;-59
2021/09/17 14:04:50;;;;;;;;;14.67;13.00;;;;;22.53;52.66;98260.88;6240189;27;96477;-61
2021/09/17 14:07:54;;;;;;;;;15.40;14.00;;;;;22.49;52.83;98266.16;6250976;27;97154;-62
2021/09/17 14:10:58;;;;;;;;;14.40;13.40;;;;;22.48;52.30;98257.09;6241461;27;97283;-61
2021/09/17 14:14:01;;;;;;;;;17.20;16.00;;;;;22.45;52.94;98246.75;6242433;27;96786;-62
2021/09/17 14:17:07;;;;;;;;;13.60;13.00;;;;;22.36;52.96;98245.09;6259357;27;96868;-62
2021/09/17 14:20:11;;;;;;;;;18.00;16.00;;;;;22.32;53.04;98244.09;6257787;27;96636;-61